sensor_id;sensor_type;location;lat;lon;timestamp;P1;durP1;ratioP1;P2;durP2;ratioP2
1679;SDS011;838;51.794;12.258;2023-06-10T00:01:29;5.57;;;3.20;;
1679;SDS011;838;51.794;12.258;2023-06-10T00:03:55;4.43;;;3.13;;
1679;SDS011;838;51.794;12.258;2023-06-10T00:06:21;5.60;;;3.10;;
1679;SDS011;838;51.794;12.258;2023-06-10T00:08:52;5.57;;;2.97;;
1679;SDS011;838;51.794;12.258;2023-06-10T00:11:18;4.90;;;2.90;;
1679;SDS011;838;51.794;12.258;2023-06-10T00:13:45;4.30;;;2.67;;
1679;SDS011;838;51.794;12.258;2023-06-10T00:16:10;5.60;;;3.00;;
1679;SDS011;838;51.794;12.258;2023-06-10T00:18:37;5.23;;;2.90;;
1679;SDS011;838;51.794;12.258;2023-06-10T00:21:04;6.03;;;3.10;;
1679;SDS011;838;51.794;12.258;2023-06-10T00:23:32;5.30;;;3.20;;
1679;SDS011;838;51.794;12.258;2023-06-10T00:26:03;5.20;;;2.73;;
1679;SDS011;838;51.794;12.258;2023-06-10T00:28:30;4.20;;;2.93;;
1679;SDS011;838;51.794;12.258;2023-06-10T00:30:55;4.90;;;3.27;;
1679;SDS011;838;51.794;12.258;2023-06-10T00:33:22;4.73;;;3.30;;
1679;SDS011;838;51.794;12.258;2023-06-10T00:35:48;5.10;;;3.03;;
1679;SDS011;838;51.794;12.258;2023-06-10T00:38:14;5.57;;;3.33;;
1679;SDS011;838;51.794;12.258;2023-06-10T00:40:40;6.13;;;3.00;;
1679;SDS011;838;51.794;12.258;2023-06-10T00:43:06;5.57;;;3.10;;
1679;SDS011;838;51.794;12.258;2023-06-10T00:45:32;6.47;;;3.17;;
1679;SDS011;838;51.794;12.258;2023-06-10T00:47:59;4.80;;;2.87;;
1679;SDS011;838;51.794;12.258;2023-06-10T00:50:26;6.43;;;3.53;;
1679;SDS011;838;51.794;12.258;2023-06-10T00:52:52;4.27;;;2.90;;
1679;SDS011;838;51.794;12.258;2023-06-10T00:55:19;3.70;;;3.10;;
1679;SDS011;838;51.794;12.258;2023-06-10T00:57:45;4.70;;;3.60;;
1679;SDS011;838;51.794;12.258;2023-06-10T01:00:13;8.40;;;3.63;;
1679;SDS011;838;51.794;12.258;2023-06-10T01:02:40;4.10;;;2.97;;
1679;SDS011;838;51.794;12.258;2023-06-10T01:05:06;4.90;;;3.10;;
1679;SDS011;838;51.794;12.258;2023-06-10T01:07:43;5.07;;;3.37;;
1679;SDS011;838;51.794;12.258;2023-06-10T01:10:31;7.13;;;3.70;;
1679;SDS011;838;51.794;12.258;2023-06-10T01:13:09;7.73;;;3.03;;
1679;SDS011;838;51.794;12.258;2023-06-10T01:15:39;5.10;;;3.33;;
1679;SDS011;838;51.794;12.258;2023-06-10T01:18:06;5.13;;;3.33;;
1679;SDS011;838;51.794;12.258;2023-06-10T01:20:40;6.23;;;3.20;;
1679;SDS011;838;51.794;12.258;2023-06-10T01:23:08;3.40;;;2.50;;
1679;SDS011;838;51.794;12.258;2023-06-10T01:25:37;4.27;;;2.70;;
1679;SDS011;838;51.794;12.258;2023-06-10T01:30:48;6.93;;;3.97;;
1679;SDS011;838;51.794;12.258;2023-06-10T01:33:18;4.93;;;3.37;;
1679;SDS011;838;51.794;12.258;2023-06-10T01:35:53;4.97;;;3.50;;
1679;SDS011;838;51.794;12.258;2023-06-10T01:38:20;4.83;;;3.50;;
1679;SDS011;838;51.794;12.258;2023-06-10T01:40:48;6.67;;;3.97;;
1679;SDS011;838;51.794;12.258;2023-06-10T01:43:14;5.50;;;2.97;;
1679;SDS011;838;51.794;12.258;2023-06-10T01:45:40;5.37;;;3.90;;
1679;SDS011;838;51.794;12.258;2023-06-10T01:48:06;7.37;;;4.10;;
1679;SDS011;838;51.794;12.258;2023-06-10T01:50:32;5.37;;;3.90;;
1679;SDS011;838;51.794;12.258;2023-06-10T01:52:59;7.07;;;4.00;;
1679;SDS011;838;51.794;12.258;2023-06-10T01:55:25;7.77;;;4.00;;
1679;SDS011;838;51.794;12.258;2023-06-10T01:57:51;5.70;;;3.70;;
1679;SDS011;838;51.794;12.258;2023-06-10T02:00:17;6.43;;;3.90;;
1679;SDS011;838;51.794;12.258;2023-06-10T02:02:42;6.47;;;3.93;;
1679;SDS011;838;51.794;12.258;2023-06-10T02:05:08;8.43;;;5.90;;
1679;SDS011;838;51.794;12.258;2023-06-10T02:07:34;6.70;;;4.23;;
1679;SDS011;838;51.794;12.258;2023-06-10T02:09:59;5.17;;;3.90;;
1679;SDS011;838;51.794;12.258;2023-06-10T02:12:25;7.40;;;4.53;;
1679;SDS011;838;51.794;12.258;2023-06-10T02:14:51;5.63;;;4.37;;
1679;SDS011;838;51.794;12.258;2023-06-10T02:17:17;5.80;;;4.00;;
1679;SDS011;838;51.794;12.258;2023-06-10T02:19:44;9.27;;;4.20;;
1679;SDS011;838;51.794;12.258;2023-06-10T02:22:21;8.17;;;4.47;;
1679;SDS011;838;51.794;12.258;2023-06-10T02:24:47;5.93;;;3.77;;
1679;SDS011;838;51.794;12.258;2023-06-10T02:27:13;6.43;;;4.80;;
1679;SDS011;838;51.794;12.258;2023-06-10T02:29:40;4.50;;;3.50;;
1679;SDS011;838;51.794;12.258;2023-06-10T02:32:06;7.77;;;4.33;;
1679;SDS011;838;51.794;12.258;2023-06-10T02:34:32;6.10;;;4.33;;
1679;SDS011;838;51.794;12.258;2023-06-10T02:36:58;5.63;;;4.10;;
1679;SDS011;838;51.794;12.258;2023-06-10T02:39:24;6.30;;;4.60;;
1679;SDS011;838;51.794;12.258;2023-06-10T02:41:50;6.37;;;4.27;;
1679;SDS011;838;51.794;12.258;2023-06-10T02:44:17;6.80;;;4.57;;
1679;SDS011;838;51.794;12.258;2023-06-10T02:46:43;6.20;;;4.17;;
1679;SDS011;838;51.794;12.258;2023-06-10T02:49:09;6.37;;;4.40;;
1679;SDS011;838;51.794;12.258;2023-06-10T02:51:36;6.63;;;4.60;;
1679;SDS011;838;51.794;12.258;2023-06-10T02:54:01;6.90;;;4.37;;
1679;SDS011;838;51.794;12.258;2023-06-10T02:56:27;6.13;;;5.07;;
1679;SDS011;838;51.794;12.258;2023-06-10T02:58:53;9.43;;;5.47;;
1679;SDS011;838;51.794;12.258;2023-06-10T03:01:19;6.83;;;4.73;;
1679;SDS011;838;51.794;12.258;2023-06-10T03:03:45;7.23;;;5.07;;
1679;SDS011;838;51.794;12.258;2023-06-10T03:06:11;6.67;;;3.87;;
1679;SDS011;838;51.794;12.258;2023-06-10T03:08:38;8.43;;;5.27;;
1679;SDS011;838;51.794;12.258;2023-06-10T03:11:04;6.43;;;4.37;;
1679;SDS011;838;51.794;12.258;2023-06-10T03:13:30;7.57;;;4.40;;
1679;SDS011;838;51.794;12.258;2023-06-10T03:15:57;7.47;;;4.50;;
1679;SDS011;838;51.794;12.258;2023-06-10T03:18:25;7.73;;;4.37;;
1679;SDS011;838;51.794;12.258;2023-06-10T03:20:52;8.20;;;5.47;;
1679;SDS011;838;51.794;12.258;2023-06-10T03:23:17;5.97;;;4.47;;
1679;SDS011;838;51.794;12.258;2023-06-10T03:25:44;8.70;;;5.07;;
1679;SDS011;838;51.794;12.258;2023-06-10T03:28:10;5.63;;;4.30;;
1679;SDS011;838;51.794;12.258;2023-06-10T03:30:36;6.93;;;4.57;;
1679;SDS011;838;51.794;12.258;2023-06-10T03:33:02;6.33;;;4.33;;
1679;SDS011;838;51.794;12.258;2023-06-10T03:35:27;6.57;;;4.10;;
1679;SDS011;838;51.794;12.258;2023-06-10T03:37:54;7.90;;;4.20;;
1679;SDS011;838;51.794;12.258;2023-06-10T03:40:20;6.77;;;4.23;;
1679;SDS011;838;51.794;12.258;2023-06-10T03:42:45;5.10;;;3.90;;
1679;SDS011;838;51.794;12.258;2023-06-10T03:45:11;6.43;;;4.30;;
1679;SDS011;838;51.794;12.258;2023-06-10T03:47:38;7.33;;;3.97;;
1679;SDS011;838;51.794;12.258;2023-06-10T03:50:05;6.80;;;5.20;;
1679;SDS011;838;51.794;12.258;2023-06-10T03:52:33;7.57;;;4.40;;
1679;SDS011;838;51.794;12.258;2023-06-10T03:54:59;8.07;;;5.30;;
1679;SDS011;838;51.794;12.258;2023-06-10T03:57:25;7.07;;;4.47;;
1679;SDS011;838;51.794;12.258;2023-06-10T03:59:51;6.97;;;4.40;;
1679;SDS011;838;51.794;12.258;2023-06-10T04:02:17;9.03;;;4.70;;
1679;SDS011;838;51.794;12.258;2023-06-10T04:04:43;6.57;;;4.33;;
1679;SDS011;838;51.794;12.258;2023-06-10T04:07:09;7.13;;;4.57;;
1679;SDS011;838;51.794;12.258;2023-06-10T04:09:35;6.93;;;4.53;;
1679;SDS011;838;51.794;12.258;2023-06-10T04:12:02;7.40;;;5.20;;
1679;SDS011;838;51.794;12.258;2023-06-10T04:14:31;6.10;;;4.30;;
1679;SDS011;838;51.794;12.258;2023-06-10T04:16:56;6.30;;;4.90;;
1679;SDS011;838;51.794;12.258;2023-06-10T04:19:22;6.30;;;4.53;;
1679;SDS011;838;51.794;12.258;2023-06-10T04:21:48;8.07;;;4.27;;
1679;SDS011;838;51.794;12.258;2023-06-10T04:24:14;8.47;;;4.67;;
1679;SDS011;838;51.794;12.258;2023-06-10T04:26:39;9.93;;;4.97;;
1679;SDS011;838;51.794;12.258;2023-06-10T04:29:05;6.97;;;4.53;;
1679;SDS011;838;51.794;12.258;2023-06-10T04:31:31;6.87;;;4.27;;
1679;SDS011;838;51.794;12.258;2023-06-10T04:33:57;5.97;;;4.37;;
1679;SDS011;838;51.794;12.258;2023-06-10T04:36:23;7.30;;;4.20;;
1679;SDS011;838;51.794;12.258;2023-06-10T04:38:48;7.63;;;5.13;;
1679;SDS011;838;51.794;12.258;2023-06-10T04:41:17;6.70;;;5.10;;
1679;SDS011;838;51.794;12.258;2023-06-10T04:43:43;9.60;;;5.97;;
1679;SDS011;838;51.794;12.258;2023-06-10T04:46:08;6.80;;;4.70;;
1679;SDS011;838;51.794;12.258;2023-06-10T04:48:35;5.90;;;4.40;;
1679;SDS011;838;51.794;12.258;2023-06-10T04:51:01;8.37;;;4.53;;
1679;SDS011;838;51.794;12.258;2023-06-10T04:53:26;7.30;;;5.13;;
1679;SDS011;838;51.794;12.258;2023-06-10T04:55:53;8.00;;;5.57;;
1679;SDS011;838;51.794;12.258;2023-06-10T04:58:19;7.77;;;4.60;;
1679;SDS011;838;51.794;12.258;2023-06-10T05:00:45;7.00;;;4.53;;
1679;SDS011;838;51.794;12.258;2023-06-10T05:03:10;6.43;;;4.63;;
1679;SDS011;838;51.794;12.258;2023-06-10T05:05:36;6.43;;;4.83;;
1679;SDS011;838;51.794;12.258;2023-06-10T05:08:02;8.07;;;4.90;;
1679;SDS011;838;51.794;12.258;2023-06-10T05:10:28;6.83;;;4.50;;
1679;SDS011;838;51.794;12.258;2023-06-10T05:12:56;9.13;;;5.37;;
1679;SDS011;838;51.794;12.258;2023-06-10T05:15:23;6.23;;;4.70;;
1679;SDS011;838;51.794;12.258;2023-06-10T05:17:49;7.47;;;4.83;;
1679;SDS011;838;51.794;12.258;2023-06-10T05:20:15;7.80;;;5.00;;
1679;SDS011;838;51.794;12.258;2023-06-10T05:22:41;7.00;;;4.27;;
1679;SDS011;838;51.794;12.258;2023-06-10T05:25:07;8.60;;;4.37;;
1679;SDS011;838;51.794;12.258;2023-06-10T05:27:33;9.37;;;5.20;;
1679;SDS011;838;51.794;12.258;2023-06-10T05:29:58;6.23;;;4.20;;
1679;SDS011;838;51.794;12.258;2023-06-10T05:32:24;10.00;;;4.70;;
1679;SDS011;838;51.794;12.258;2023-06-10T05:34:50;6.20;;;4.60;;
1679;SDS011;838;51.794;12.258;2023-06-10T05:37:15;11.13;;;4.80;;
1679;SDS011;838;51.794;12.258;2023-06-10T05:39:41;6.77;;;4.90;;
1679;SDS011;838;51.794;12.258;2023-06-10T05:42:07;6.87;;;4.20;;
1679;SDS011;838;51.794;12.258;2023-06-10T05:44:33;6.90;;;4.27;;
1679;SDS011;838;51.794;12.258;2023-06-10T05:46:59;6.77;;;4.67;;
1679;SDS011;838;51.794;12.258;2023-06-10T05:49:34;8.67;;;4.60;;
1679;SDS011;838;51.794;12.258;2023-06-10T05:52:06;6.50;;;4.70;;
1679;SDS011;838;51.794;12.258;2023-06-10T05:54:32;7.53;;;4.67;;
1679;SDS011;838;51.794;12.258;2023-06-10T05:56:58;7.70;;;4.40;;
1679;SDS011;838;51.794;12.258;2023-06-10T05:59:26;7.53;;;4.53;;
1679;SDS011;838;51.794;12.258;2023-06-10T06:01:52;6.97;;;4.03;;
1679;SDS011;838;51.794;12.258;2023-06-10T06:04:18;7.33;;;4.10;;
1679;SDS011;838;51.794;12.258;2023-06-10T06:06:44;6.57;;;4.43;;
1679;SDS011;838;51.794;12.258;2023-06-10T06:09:10;5.60;;;4.10;;
1679;SDS011;838;51.794;12.258;2023-06-10T06:11:35;6.80;;;4.27;;
1679;SDS011;838;51.794;12.258;2023-06-10T06:14:01;6.30;;;4.50;;
1679;SDS011;838;51.794;12.258;2023-06-10T06:16:27;7.80;;;4.90;;
1679;SDS011;838;51.794;12.258;2023-06-10T06:18:52;7.43;;;4.13;;
1679;SDS011;838;51.794;12.258;2023-06-10T06:21:18;6.90;;;3.70;;
1679;SDS011;838;51.794;12.258;2023-06-10T06:23:44;6.30;;;4.00;;
1679;SDS011;838;51.794;12.258;2023-06-10T06:26:10;5.40;;;4.43;;
1679;SDS011;838;51.794;12.258;2023-06-10T06:28:36;6.80;;;4.20;;
1679;SDS011;838;51.794;12.258;2023-06-10T06:31:01;5.10;;;3.90;;
1679;SDS011;838;51.794;12.258;2023-06-10T06:33:27;7.00;;;4.60;;
1679;SDS011;838;51.794;12.258;2023-06-10T06:35:53;8.20;;;4.07;;
1679;SDS011;838;51.794;12.258;2023-06-10T06:38:19;7.33;;;4.20;;
1679;SDS011;838;51.794;12.258;2023-06-10T06:40:47;9.30;;;4.50;;
1679;SDS011;838;51.794;12.258;2023-06-10T06:43:13;6.57;;;4.57;;
1679;SDS011;838;51.794;12.258;2023-06-10T06:45:39;7.80;;;4.70;;
1679;SDS011;838;51.794;12.258;2023-06-10T06:48:05;6.53;;;4.87;;
1679;SDS011;838;51.794;12.258;2023-06-10T06:50:31;7.67;;;4.50;;
1679;SDS011;838;51.794;12.258;2023-06-10T06:52:57;7.40;;;4.40;;
1679;SDS011;838;51.794;12.258;2023-06-10T06:55:23;8.07;;;4.33;;
1679;SDS011;838;51.794;12.258;2023-06-10T06:57:48;6.87;;;4.80;;
1679;SDS011;838;51.794;12.258;2023-06-10T07:00:14;6.23;;;4.30;;
1679;SDS011;838;51.794;12.258;2023-06-10T07:02:40;6.23;;;4.70;;
1679;SDS011;838;51.794;12.258;2023-06-10T07:05:06;6.60;;;5.00;;
1679;SDS011;838;51.794;12.258;2023-06-10T07:07:42;8.60;;;5.07;;
1679;SDS011;838;51.794;12.258;2023-06-10T07:10:13;7.97;;;4.83;;
1679;SDS011;838;51.794;12.258;2023-06-10T07:12:39;8.33;;;4.87;;
1679;SDS011;838;51.794;12.258;2023-06-10T07:15:05;8.70;;;5.33;;
1679;SDS011;838;51.794;12.258;2023-06-10T07:17:35;7.73;;;5.40;;
1679;SDS011;838;51.794;12.258;2023-06-10T07:20:10;7.10;;;5.50;;
1679;SDS011;838;51.794;12.258;2023-06-10T07:22:40;6.60;;;4.57;;
1679;SDS011;838;51.794;12.258;2023-06-10T07:25:10;5.43;;;4.40;;
1679;SDS011;838;51.794;12.258;2023-06-10T07:27:35;8.50;;;5.63;;
1679;SDS011;838;51.794;12.258;2023-06-10T07:30:06;6.67;;;4.93;;
1679;SDS011;838;51.794;12.258;2023-06-10T07:32:33;8.50;;;5.07;;
1679;SDS011;838;51.794;12.258;2023-06-10T07:35:02;6.00;;;5.40;;
1679;SDS011;838;51.794;12.258;2023-06-10T07:37:39;7.47;;;5.20;;
1679;SDS011;838;51.794;12.258;2023-06-10T07:40:05;9.47;;;5.57;;
1679;SDS011;838;51.794;12.258;2023-06-10T07:42:34;7.10;;;5.30;;
1679;SDS011;838;51.794;12.258;2023-06-10T07:45:03;6.00;;;5.03;;
1679;SDS011;838;51.794;12.258;2023-06-10T07:47:33;7.07;;;4.60;;
1679;SDS011;838;51.794;12.258;2023-06-10T07:49:59;9.10;;;5.37;;
1679;SDS011;838;51.794;12.258;2023-06-10T07:52:25;7.47;;;5.40;;
1679;SDS011;838;51.794;12.258;2023-06-10T07:54:51;7.60;;;5.07;;
1679;SDS011;838;51.794;12.258;2023-06-10T07:57:20;7.53;;;4.87;;
1679;SDS011;838;51.794;12.258;2023-06-10T07:59:48;6.80;;;5.27;;
1679;SDS011;838;51.794;12.258;2023-06-10T08:02:14;6.20;;;5.13;;
1679;SDS011;838;51.794;12.258;2023-06-10T08:04:40;7.30;;;4.97;;
1679;SDS011;838;51.794;12.258;2023-06-10T08:07:05;6.03;;;4.90;;
1679;SDS011;838;51.794;12.258;2023-06-10T08:09:31;7.80;;;4.93;;
1679;SDS011;838;51.794;12.258;2023-06-10T08:11:57;6.70;;;5.20;;
1679;SDS011;838;51.794;12.258;2023-06-10T08:14:26;7.87;;;5.60;;
1679;SDS011;838;51.794;12.258;2023-06-10T08:16:52;9.50;;;5.67;;
1679;SDS011;838;51.794;12.258;2023-06-10T08:19:18;8.27;;;5.60;;
1679;SDS011;838;51.794;12.258;2023-06-10T08:21:46;7.80;;;5.30;;
1679;SDS011;838;51.794;12.258;2023-06-10T08:24:15;6.53;;;5.17;;
1679;SDS011;838;51.794;12.258;2023-06-10T08:26:42;6.83;;;5.80;;
1679;SDS011;838;51.794;12.258;2023-06-10T08:29:11;6.97;;;5.10;;
1679;SDS011;838;51.794;12.258;2023-06-10T08:31:37;6.10;;;5.17;;
1679;SDS011;838;51.794;12.258;2023-06-10T08:34:10;8.10;;;5.80;;
1679;SDS011;838;51.794;12.258;2023-06-10T08:36:42;7.37;;;5.37;;
1679;SDS011;838;51.794;12.258;2023-06-10T08:39:18;6.70;;;5.73;;
1679;SDS011;838;51.794;12.258;2023-06-10T08:41:48;9.43;;;6.23;;
1679;SDS011;838;51.794;12.258;2023-06-10T08:44:31;7.40;;;6.30;;
1679;SDS011;838;51.794;12.258;2023-06-10T08:46:59;7.40;;;5.87;;
1679;SDS011;838;51.794;12.258;2023-06-10T08:49:29;7.93;;;6.70;;
1679;SDS011;838;51.794;12.258;2023-06-10T08:51:59;6.27;;;5.03;;
1679;SDS011;838;51.794;12.258;2023-06-10T08:54:28;7.13;;;6.07;;
1679;SDS011;838;51.794;12.258;2023-06-10T08:56:57;7.20;;;6.30;;
1679;SDS011;838;51.794;12.258;2023-06-10T08:59:24;6.87;;;5.90;;
1679;SDS011;838;51.794;12.258;2023-06-10T09:01:50;7.63;;;6.17;;
1679;SDS011;838;51.794;12.258;2023-06-10T09:04:18;9.20;;;6.40;;
1679;SDS011;838;51.794;12.258;2023-06-10T09:06:45;7.67;;;6.40;;
1679;SDS011;838;51.794;12.258;2023-06-10T09:09:21;6.67;;;5.17;;
1679;SDS011;838;51.794;12.258;2023-06-10T09:11:48;6.57;;;5.60;;
1679;SDS011;838;51.794;12.258;2023-06-10T09:14:14;6.50;;;5.23;;
1679;SDS011;838;51.794;12.258;2023-06-10T09:16:41;6.20;;;5.40;;
1679;SDS011;838;51.794;12.258;2023-06-10T09:19:07;6.30;;;5.03;;
1679;SDS011;838;51.794;12.258;2023-06-10T09:21:48;6.17;;;5.13;;
1679;SDS011;838;51.794;12.258;2023-06-10T09:24:37;5.30;;;4.80;;
1679;SDS011;838;51.794;12.258;2023-06-10T09:27:11;6.17;;;4.97;;
1679;SDS011;838;51.794;12.258;2023-06-10T09:29:45;6.97;;;5.00;;
1679;SDS011;838;51.794;12.258;2023-06-10T09:32:48;5.00;;;4.50;;
1679;SDS011;838;51.794;12.258;2023-06-10T09:36:06;4.57;;;4.07;;
1679;SDS011;838;51.794;12.258;2023-06-10T09:42:16;5.67;;;4.57;;
1679;SDS011;838;51.794;12.258;2023-06-10T09:48:34;4.20;;;3.80;;
1679;SDS011;838;51.794;12.258;2023-06-10T09:51:25;5.00;;;4.10;;
1679;SDS011;838;51.794;12.258;2023-06-10T09:53:51;6.70;;;5.30;;
1679;SDS011;838;51.794;12.258;2023-06-10T09:59:36;4.77;;;4.37;;
1679;SDS011;838;51.794;12.258;2023-06-10T10:09:49;5.60;;;4.23;;
1679;SDS011;838;51.794;12.258;2023-06-10T10:16:11;7.10;;;4.90;;
1679;SDS011;838;51.794;12.258;2023-06-10T10:18:41;5.10;;;4.47;;
1679;SDS011;838;51.794;12.258;2023-06-10T10:21:14;5.73;;;4.93;;
1679;SDS011;838;51.794;12.258;2023-06-10T10:23:53;4.90;;;4.40;;
1679;SDS011;838;51.794;12.258;2023-06-10T10:26:42;6.63;;;4.83;;
1679;SDS011;838;51.794;12.258;2023-06-10T10:33:08;4.40;;;4.00;;
1679;SDS011;838;51.794;12.258;2023-06-10T10:36:16;5.33;;;4.20;;
1679;SDS011;838;51.794;12.258;2023-06-10T10:39:10;5.23;;;4.13;;
1679;SDS011;838;51.794;12.258;2023-06-10T10:44:37;9.60;;;5.30;;
1679;SDS011;838;51.794;12.258;2023-06-10T10:47:41;5.27;;;4.70;;
1679;SDS011;838;51.794;12.258;2023-06-10T10:50:20;4.60;;;4.10;;
1679;SDS011;838;51.794;12.258;2023-06-10T10:56:15;6.10;;;4.73;;
1679;SDS011;838;51.794;12.258;2023-06-10T10:59:08;7.60;;;4.40;;
1679;SDS011;838;51.794;12.258;2023-06-10T11:01:44;5.40;;;4.90;;
1679;SDS011;838;51.794;12.258;2023-06-10T11:07:51;5.03;;;4.53;;
1679;SDS011;838;51.794;12.258;2023-06-10T11:13:06;5.83;;;4.10;;
1679;SDS011;838;51.794;12.258;2023-06-10T11:15:56;6.77;;;4.83;;
1679;SDS011;838;51.794;12.258;2023-06-10T11:18:45;5.50;;;4.20;;
1679;SDS011;838;51.794;12.258;2023-06-10T11:24:41;6.60;;;4.80;;
1679;SDS011;838;51.794;12.258;2023-06-10T11:41:41;5.10;;;4.60;;
1679;SDS011;838;51.794;12.258;2023-06-10T11:44:08;5.17;;;4.57;;
1679;SDS011;838;51.794;12.258;2023-06-10T11:58:02;7.53;;;4.47;;
1679;SDS011;838;51.794;12.258;2023-06-10T12:00:25;4.70;;;4.20;;
1679;SDS011;838;51.794;12.258;2023-06-10T12:02:55;6.13;;;4.70;;
1679;SDS011;838;51.794;12.258;2023-06-10T12:19:49;5.90;;;5.30;;
1679;SDS011;838;51.794;12.258;2023-06-10T12:36:35;5.97;;;5.00;;
1679;SDS011;838;51.794;12.258;2023-06-10T12:39:04;5.67;;;4.77;;
1679;SDS011;838;51.794;12.258;2023-06-10T12:41:30;6.07;;;5.17;;
1679;SDS011;838;51.794;12.258;2023-06-10T12:43:57;5.50;;;4.90;;
1679;SDS011;838;51.794;12.258;2023-06-10T12:46:23;5.90;;;5.33;;
1679;SDS011;838;51.794;12.258;2023-06-10T12:48:50;5.40;;;4.70;;
1679;SDS011;838;51.794;12.258;2023-06-10T12:51:20;5.80;;;4.90;;
1679;SDS011;838;51.794;12.258;2023-06-10T12:53:45;5.10;;;4.10;;
1679;SDS011;838;51.794;12.258;2023-06-10T12:56:11;5.50;;;4.80;;
1679;SDS011;838;51.794;12.258;2023-06-10T12:58:37;5.93;;;4.80;;
1679;SDS011;838;51.794;12.258;2023-06-10T13:01:03;5.70;;;5.07;;
1679;SDS011;838;51.794;12.258;2023-06-10T13:03:29;6.00;;;5.33;;
1679;SDS011;838;51.794;12.258;2023-06-10T13:05:55;5.33;;;4.83;;
1679;SDS011;838;51.794;12.258;2023-06-10T13:08:20;6.73;;;5.37;;
1679;SDS011;838;51.794;12.258;2023-06-10T13:10:54;6.17;;;4.03;;
1679;SDS011;838;51.794;12.258;2023-06-10T13:13:22;5.00;;;4.03;;
1679;SDS011;838;51.794;12.258;2023-06-10T13:15:48;5.50;;;4.37;;
1679;SDS011;838;51.794;12.258;2023-06-10T13:18:15;5.97;;;5.00;;
1679;SDS011;838;51.794;12.258;2023-06-10T13:20:44;5.83;;;4.80;;
1679;SDS011;838;51.794;12.258;2023-06-10T13:23:09;8.40;;;5.13;;
1679;SDS011;838;51.794;12.258;2023-06-10T13:25:35;5.07;;;4.57;;
1679;SDS011;838;51.794;12.258;2023-06-10T13:28:05;7.67;;;5.20;;
1679;SDS011;838;51.794;12.258;2023-06-10T13:30:31;5.83;;;5.20;;
1679;SDS011;838;51.794;12.258;2023-06-10T13:32:57;5.73;;;5.13;;
1679;SDS011;838;51.794;12.258;2023-06-10T13:35:23;5.80;;;5.07;;
1679;SDS011;838;51.794;12.258;2023-06-10T13:37:48;5.73;;;5.03;;
1679;SDS011;838;51.794;12.258;2023-06-10T13:40:14;6.57;;;4.30;;
1679;SDS011;838;51.794;12.258;2023-06-10T13:42:40;5.40;;;4.60;;
1679;SDS011;838;51.794;12.258;2023-06-10T13:45:06;6.13;;;5.03;;
1679;SDS011;838;51.794;12.258;2023-06-10T13:47:32;5.23;;;4.73;;
1679;SDS011;838;51.794;12.258;2023-06-10T13:49:58;5.80;;;4.33;;
1679;SDS011;838;51.794;12.258;2023-06-10T13:52:24;5.23;;;4.20;;
1679;SDS011;838;51.794;12.258;2023-06-10T13:54:49;5.30;;;4.63;;
1679;SDS011;838;51.794;12.258;2023-06-10T13:57:15;5.30;;;4.53;;
1679;SDS011;838;51.794;12.258;2023-06-10T13:59:41;5.20;;;4.10;;
1679;SDS011;838;51.794;12.258;2023-06-10T14:02:06;6.10;;;4.03;;
1679;SDS011;838;51.794;12.258;2023-06-10T14:04:32;4.93;;;4.40;;
1679;SDS011;838;51.794;12.258;2023-06-10T14:06:58;4.70;;;4.10;;
1679;SDS011;838;51.794;12.258;2023-06-10T14:09:23;4.93;;;3.97;;
1679;SDS011;838;51.794;12.258;2023-06-10T14:11:49;4.40;;;3.70;;
1679;SDS011;838;51.794;12.258;2023-06-10T14:14:15;4.30;;;3.50;;
1679;SDS011;838;51.794;12.258;2023-06-10T14:16:41;4.60;;;3.53;;
1679;SDS011;838;51.794;12.258;2023-06-10T14:19:06;3.90;;;3.50;;
1679;SDS011;838;51.794;12.258;2023-06-10T14:21:32;3.80;;;3.40;;
1679;SDS011;838;51.794;12.258;2023-06-10T14:23:58;4.93;;;4.17;;
1679;SDS011;838;51.794;12.258;2023-06-10T14:26:24;4.10;;;3.20;;
1679;SDS011;838;51.794;12.258;2023-06-10T14:28:51;4.70;;;3.40;;
1679;SDS011;838;51.794;12.258;2023-06-10T14:31:17;4.07;;;3.20;;
1679;SDS011;838;51.794;12.258;2023-06-10T14:33:42;5.93;;;4.27;;
1679;SDS011;838;51.794;12.258;2023-06-10T14:36:09;4.20;;;3.63;;
1679;SDS011;838;51.794;12.258;2023-06-10T14:38:35;4.50;;;3.50;;
1679;SDS011;838;51.794;12.258;2023-06-10T14:41:01;6.03;;;3.97;;
1679;SDS011;838;51.794;12.258;2023-06-10T14:43:27;4.30;;;3.80;;
1679;SDS011;838;51.794;12.258;2023-06-10T14:45:53;5.00;;;3.53;;
1679;SDS011;838;51.794;12.258;2023-06-10T14:48:20;4.80;;;3.40;;
1679;SDS011;838;51.794;12.258;2023-06-10T14:50:46;4.70;;;3.47;;
1679;SDS011;838;51.794;12.258;2023-06-10T14:53:15;4.00;;;3.30;;
1679;SDS011;838;51.794;12.258;2023-06-10T14:55:42;4.73;;;3.53;;
1679;SDS011;838;51.794;12.258;2023-06-10T14:58:08;5.07;;;4.47;;
1679;SDS011;838;51.794;12.258;2023-06-10T15:00:33;4.43;;;4.00;;
1679;SDS011;838;51.794;12.258;2023-06-10T15:02:59;4.90;;;4.03;;
1679;SDS011;838;51.794;12.258;2023-06-10T15:05:25;5.27;;;4.00;;
1679;SDS011;838;51.794;12.258;2023-06-10T15:07:51;4.83;;;4.30;;
1679;SDS011;838;51.794;12.258;2023-06-10T15:10:16;5.50;;;4.53;;
1679;SDS011;838;51.794;12.258;2023-06-10T15:12:43;4.03;;;3.63;;
1679;SDS011;838;51.794;12.258;2023-06-10T15:15:08;5.20;;;4.30;;
1679;SDS011;838;51.794;12.258;2023-06-10T15:17:35;4.63;;;3.87;;
1679;SDS011;838;51.794;12.258;2023-06-10T15:20:00;5.00;;;4.27;;
1679;SDS011;838;51.794;12.258;2023-06-10T15:22:26;5.40;;;4.87;;
1679;SDS011;838;51.794;12.258;2023-06-10T15:24:52;5.60;;;4.10;;
1679;SDS011;838;51.794;12.258;2023-06-10T15:27:18;4.70;;;4.20;;
1679;SDS011;838;51.794;12.258;2023-06-10T15:29:43;4.70;;;4.20;;
1679;SDS011;838;51.794;12.258;2023-06-10T15:32:09;5.97;;;3.90;;
1679;SDS011;838;51.794;12.258;2023-06-10T15:34:35;5.17;;;4.50;;
1679;SDS011;838;51.794;12.258;2023-06-10T15:37:01;5.70;;;4.40;;
1679;SDS011;838;51.794;12.258;2023-06-10T15:39:26;5.87;;;4.70;;
1679;SDS011;838;51.794;12.258;2023-06-10T15:41:52;4.57;;;4.07;;
1679;SDS011;838;51.794;12.258;2023-06-10T15:44:18;5.23;;;4.47;;
1679;SDS011;838;51.794;12.258;2023-06-10T15:46:44;5.27;;;4.77;;
1679;SDS011;838;51.794;12.258;2023-06-10T15:49:10;5.40;;;4.70;;
1679;SDS011;838;51.794;12.258;2023-06-10T15:51:36;5.03;;;4.53;;
1679;SDS011;838;51.794;12.258;2023-06-10T15:54:01;5.10;;;4.60;;
1679;SDS011;838;51.794;12.258;2023-06-10T15:56:27;5.70;;;5.17;;
1679;SDS011;838;51.794;12.258;2023-06-10T15:58:53;5.20;;;4.60;;
1679;SDS011;838;51.794;12.258;2023-06-10T16:01:20;6.13;;;5.07;;
1679;SDS011;838;51.794;12.258;2023-06-10T16:03:46;5.80;;;5.20;;
1679;SDS011;838;51.794;12.258;2023-06-10T16:06:11;5.53;;;4.90;;
1679;SDS011;838;51.794;12.258;2023-06-10T16:08:37;7.00;;;5.47;;
1679;SDS011;838;51.794;12.258;2023-06-10T16:11:03;5.40;;;4.80;;
1679;SDS011;838;51.794;12.258;2023-06-10T16:13:29;7.00;;;6.40;;
1679;SDS011;838;51.794;12.258;2023-06-10T16:15:55;5.60;;;5.00;;
1679;SDS011;838;51.794;12.258;2023-06-10T16:18:21;4.97;;;4.40;;
1679;SDS011;838;51.794;12.258;2023-06-10T16:20:47;6.30;;;5.30;;
1679;SDS011;838;51.794;12.258;2023-06-10T16:23:13;6.13;;;5.20;;
1679;SDS011;838;51.794;12.258;2023-06-10T16:25:39;7.80;;;6.80;;
1679;SDS011;838;51.794;12.258;2023-06-10T16:28:05;6.10;;;5.20;;
1679;SDS011;838;51.794;12.258;2023-06-10T16:30:31;6.53;;;5.60;;
1679;SDS011;838;51.794;12.258;2023-06-10T16:32:58;8.53;;;7.73;;
1679;SDS011;838;51.794;12.258;2023-06-10T16:35:24;7.97;;;7.17;;
1679;SDS011;838;51.794;12.258;2023-06-10T16:37:50;9.20;;;8.10;;
1679;SDS011;838;51.794;12.258;2023-06-10T16:40:16;11.27;;;7.40;;
1679;SDS011;838;51.794;12.258;2023-06-10T16:42:41;5.50;;;5.00;;
1679;SDS011;838;51.794;12.258;2023-06-10T16:45:07;6.07;;;5.10;;
1679;SDS011;838;51.794;12.258;2023-06-10T16:47:33;5.67;;;4.80;;
1679;SDS011;838;51.794;12.258;2023-06-10T16:49:59;5.20;;;4.70;;
1679;SDS011;838;51.794;12.258;2023-06-10T16:52:26;7.43;;;5.77;;
1679;SDS011;838;51.794;12.258;2023-06-10T16:54:51;6.67;;;4.80;;
1679;SDS011;838;51.794;12.258;2023-06-10T16:57:17;6.57;;;5.00;;
1679;SDS011;838;51.794;12.258;2023-06-10T16:59:43;5.40;;;4.67;;